sensor_id;sensor_type;location;lat;lon;timestamp;P1;durP1;ratioP1;P2;durP2;ratioP2
36475;SDS011;56615;42.682;23.364;2023-05-13T00:00:33;5.00;;;2.58;;
36475;SDS011;56615;42.682;23.364;2023-05-13T00:02:59;6.60;;;2.55;;
36475;SDS011;56615;42.682;23.364;2023-05-13T00:05:28;7.68;;;3.05;;
36475;SDS011;56615;42.682;23.364;2023-05-13T00:07:54;8.75;;;3.30;;
36475;SDS011;56615;42.682;23.364;2023-05-13T00:10:21;3.97;;;2.58;;
36475;SDS011;56615;42.682;23.364;2023-05-13T00:12:50;4.25;;;2.55;;
36475;SDS011;56615;42.682;23.364;2023-05-13T00:15:15;4.82;;;2.50;;
36475;SDS011;56615;42.682;23.364;2023-05-13T00:17:41;4.05;;;2.40;;
36475;SDS011;56615;42.682;23.364;2023-05-13T00:20:10;5.97;;;2.38;;
36475;SDS011;56615;42.682;23.364;2023-05-13T00:22:36;5.10;;;2.45;;
36475;SDS011;56615;42.682;23.364;2023-05-13T00:25:01;6.43;;;2.70;;
36475;SDS011;56615;42.682;23.364;2023-05-13T00:27:28;6.15;;;2.80;;
36475;SDS011;56615;42.682;23.364;2023-05-13T00:29:53;3.97;;;2.30;;
36475;SDS011;56615;42.682;23.364;2023-05-13T00:32:20;5.57;;;2.35;;
36475;SDS011;56615;42.682;23.364;2023-05-13T00:34:46;4.15;;;2.30;;
36475;SDS011;56615;42.682;23.364;2023-05-13T00:37:17;5.15;;;2.53;;
36475;SDS011;56615;42.682;23.364;2023-05-13T00:39:45;5.28;;;2.22;;
36475;SDS011;56615;42.682;23.364;2023-05-13T00:42:11;6.57;;;2.33;;
36475;SDS011;56615;42.682;23.364;2023-05-13T00:44:39;5.57;;;2.38;;
36475;SDS011;56615;42.682;23.364;2023-05-13T00:47:09;4.15;;;2.25;;
36475;SDS011;56615;42.682;23.364;2023-05-13T00:49:36;4.22;;;2.30;;
36475;SDS011;56615;42.682;23.364;2023-05-13T00:52:04;5.05;;;2.30;;
36475;SDS011;56615;42.682;23.364;2023-05-13T00:54:31;7.63;;;2.45;;
36475;SDS011;56615;42.682;23.364;2023-05-13T00:56:59;5.32;;;2.30;;
36475;SDS011;56615;42.682;23.364;2023-05-13T00:59:28;5.35;;;2.38;;
36475;SDS011;56615;42.682;23.364;2023-05-13T01:02:06;5.30;;;2.22;;
36475;SDS011;56615;42.682;23.364;2023-05-13T01:07:28;5.03;;;2.42;;
36475;SDS011;56615;42.682;23.364;2023-05-13T01:12:46;3.72;;;2.40;;
36475;SDS011;56615;42.682;23.364;2023-05-13T01:15:14;5.45;;;2.80;;
36475;SDS011;56615;42.682;23.364;2023-05-13T01:18:07;6.18;;;2.22;;
36475;SDS011;56615;42.682;23.364;2023-05-13T01:20:40;5.10;;;2.30;;
36475;SDS011;56615;42.682;23.364;2023-05-13T01:23:07;5.07;;;2.20;;
36475;SDS011;56615;42.682;23.364;2023-05-13T01:25:36;3.45;;;2.15;;
36475;SDS011;56615;42.682;23.364;2023-05-13T01:28:04;6.60;;;2.50;;
36475;SDS011;56615;42.682;23.364;2023-05-13T01:30:35;7.30;;;2.78;;
36475;SDS011;56615;42.682;23.364;2023-05-13T01:33:04;4.47;;;2.47;;
36475;SDS011;56615;42.682;23.364;2023-05-13T01:35:30;5.32;;;2.78;;
36475;SDS011;56615;42.682;23.364;2023-05-13T01:37:56;4.20;;;2.30;;
36475;SDS011;56615;42.682;23.364;2023-05-13T01:40:24;5.10;;;2.38;;
36475;SDS011;56615;42.682;23.364;2023-05-13T01:42:51;4.78;;;2.75;;
36475;SDS011;56615;42.682;23.364;2023-05-13T01:45:17;5.50;;;2.30;;
36475;SDS011;56615;42.682;23.364;2023-05-13T01:47:45;5.47;;;2.25;;
36475;SDS011;56615;42.682;23.364;2023-05-13T01:50:13;7.75;;;2.60;;
36475;SDS011;56615;42.682;23.364;2023-05-13T01:52:40;4.32;;;2.30;;
36475;SDS011;56615;42.682;23.364;2023-05-13T01:55:06;6.22;;;2.53;;
36475;SDS011;56615;42.682;23.364;2023-05-13T01:57:33;3.17;;;2.10;;
36475;SDS011;56615;42.682;23.364;2023-05-13T02:00:01;6.50;;;2.22;;
36475;SDS011;56615;42.682;23.364;2023-05-13T02:02:28;4.97;;;2.33;;
36475;SDS011;56615;42.682;23.364;2023-05-13T02:04:55;4.32;;;2.20;;
36475;SDS011;56615;42.682;23.364;2023-05-13T02:07:21;5.50;;;2.35;;
36475;SDS011;56615;42.682;23.364;2023-05-13T02:09:47;4.63;;;2.40;;
36475;SDS011;56615;42.682;23.364;2023-05-13T02:12:26;5.38;;;2.17;;
36475;SDS011;56615;42.682;23.364;2023-05-13T02:14:54;5.45;;;2.58;;
36475;SDS011;56615;42.682;23.364;2023-05-13T02:17:20;6.05;;;2.78;;
36475;SDS011;56615;42.682;23.364;2023-05-13T02:19:48;4.95;;;2.10;;
36475;SDS011;56615;42.682;23.364;2023-05-13T02:22:15;6.13;;;2.40;;
36475;SDS011;56615;42.682;23.364;2023-05-13T02:24:42;6.40;;;2.63;;
36475;SDS011;56615;42.682;23.364;2023-05-13T02:27:07;3.70;;;2.25;;
36475;SDS011;56615;42.682;23.364;2023-05-13T02:29:36;5.07;;;2.72;;
36475;SDS011;56615;42.682;23.364;2023-05-13T02:32:07;4.72;;;2.58;;
36475;SDS011;56615;42.682;23.364;2023-05-13T02:34:36;4.40;;;2.58;;
36475;SDS011;56615;42.682;23.364;2023-05-13T02:37:04;4.32;;;2.28;;
36475;SDS011;56615;42.682;23.364;2023-05-13T02:39:30;5.78;;;2.50;;
36475;SDS011;56615;42.682;23.364;2023-05-13T02:41:58;4.25;;;2.20;;
36475;SDS011;56615;42.682;23.364;2023-05-13T02:44:24;7.25;;;2.60;;
36475;SDS011;56615;42.682;23.364;2023-05-13T02:46:50;4.55;;;2.35;;
36475;SDS011;56615;42.682;23.364;2023-05-13T02:49:17;3.33;;;2.10;;
36475;SDS011;56615;42.682;23.364;2023-05-13T02:51:43;4.90;;;2.40;;
36475;SDS011;56615;42.682;23.364;2023-05-13T02:54:10;4.57;;;2.60;;
36475;SDS011;56615;42.682;23.364;2023-05-13T02:56:36;4.13;;;2.47;;
36475;SDS011;56615;42.682;23.364;2023-05-13T02:59:03;6.30;;;2.70;;
36475;SDS011;56615;42.682;23.364;2023-05-13T03:01:28;5.30;;;2.55;;
36475;SDS011;56615;42.682;23.364;2023-05-13T03:03:54;6.30;;;2.80;;
36475;SDS011;56615;42.682;23.364;2023-05-13T03:06:29;5.45;;;2.85;;
36475;SDS011;56615;42.682;23.364;2023-05-13T03:08:56;4.80;;;2.80;;
36475;SDS011;56615;42.682;23.364;2023-05-13T03:11:22;5.65;;;3.35;;
36475;SDS011;56615;42.682;23.364;2023-05-13T03:13:48;6.22;;;3.40;;
36475;SDS011;56615;42.682;23.364;2023-05-13T03:16:13;5.70;;;3.00;;
36475;SDS011;56615;42.682;23.364;2023-05-13T03:18:39;7.18;;;3.25;;
36475;SDS011;56615;42.682;23.364;2023-05-13T03:21:04;8.43;;;3.17;;
36475;SDS011;56615;42.682;23.364;2023-05-13T03:23:32;6.30;;;3.20;;
36475;SDS011;56615;42.682;23.364;2023-05-13T03:25:57;6.22;;;3.13;;
36475;SDS011;56615;42.682;23.364;2023-05-13T03:28:24;8.15;;;3.35;;
36475;SDS011;56615;42.682;23.364;2023-05-13T03:30:49;5.80;;;3.10;;
36475;SDS011;56615;42.682;23.364;2023-05-13T03:33:15;6.35;;;3.33;;
36475;SDS011;56615;42.682;23.364;2023-05-13T03:35:42;5.15;;;3.20;;
36475;SDS011;56615;42.682;23.364;2023-05-13T03:38:13;4.82;;;3.17;;
36475;SDS011;56615;42.682;23.364;2023-05-13T03:40:38;6.75;;;3.40;;
36475;SDS011;56615;42.682;23.364;2023-05-13T03:43:11;6.82;;;3.55;;
36475;SDS011;56615;42.682;23.364;2023-05-13T03:45:59;8.07;;;3.90;;
36475;SDS011;56615;42.682;23.364;2023-05-13T03:48:25;6.63;;;3.63;;
36475;SDS011;56615;42.682;23.364;2023-05-13T03:50:52;8.55;;;3.60;;
36475;SDS011;56615;42.682;23.364;2023-05-13T03:53:19;6.93;;;3.00;;
36475;SDS011;56615;42.682;23.364;2023-05-13T03:55:46;6.53;;;3.50;;
36475;SDS011;56615;42.682;23.364;2023-05-13T03:58:14;11.10;;;3.30;;
36475;SDS011;56615;42.682;23.364;2023-05-13T04:00:43;4.65;;;3.10;;
36475;SDS011;56615;42.682;23.364;2023-05-13T04:03:12;8.85;;;3.58;;
36475;SDS011;56615;42.682;23.364;2023-05-13T04:06:01;8.30;;;3.28;;
36475;SDS011;56615;42.682;23.364;2023-05-13T04:08:27;6.75;;;3.03;;
36475;SDS011;56615;42.682;23.364;2023-05-13T04:10:53;5.05;;;3.20;;
36475;SDS011;56615;42.682;23.364;2023-05-13T04:13:23;6.95;;;3.20;;
36475;SDS011;56615;42.682;23.364;2023-05-13T04:15:54;5.20;;;2.77;;
36475;SDS011;56615;42.682;23.364;2023-05-13T04:18:20;6.35;;;2.97;;
36475;SDS011;56615;42.682;23.364;2023-05-13T04:20:45;7.40;;;3.45;;
36475;SDS011;56615;42.682;23.364;2023-05-13T04:23:12;5.47;;;3.25;;
36475;SDS011;56615;42.682;23.364;2023-05-13T04:25:39;7.07;;;3.42;;
36475;SDS011;56615;42.682;23.364;2023-05-13T04:28:06;8.50;;;3.53;;
36475;SDS011;56615;42.682;23.364;2023-05-13T04:30:32;6.85;;;3.22;;
36475;SDS011;56615;42.682;23.364;2023-05-13T04:33:00;7.57;;;3.45;;
36475;SDS011;56615;42.682;23.364;2023-05-13T04:35:27;6.32;;;3.63;;
36475;SDS011;56615;42.682;23.364;2023-05-13T04:38:18;5.55;;;3.30;;
36475;SDS011;56615;42.682;23.364;2023-05-13T04:40:44;6.32;;;3.40;;
36475;SDS011;56615;42.682;23.364;2023-05-13T04:43:16;7.28;;;3.97;;
36475;SDS011;56615;42.682;23.364;2023-05-13T04:45:42;6.70;;;3.40;;
36475;SDS011;56615;42.682;23.364;2023-05-13T04:48:07;10.25;;;3.65;;
36475;SDS011;56615;42.682;23.364;2023-05-13T04:50:33;8.80;;;3.63;;
36475;SDS011;56615;42.682;23.364;2023-05-13T04:52:58;10.43;;;3.72;;
36475;SDS011;56615;42.682;23.364;2023-05-13T04:55:29;7.35;;;3.30;;
36475;SDS011;56615;42.682;23.364;2023-05-13T04:57:55;6.32;;;3.22;;
36475;SDS011;56615;42.682;23.364;2023-05-13T05:00:23;8.40;;;3.67;;
36475;SDS011;56615;42.682;23.364;2023-05-13T05:02:49;7.97;;;3.78;;
36475;SDS011;56615;42.682;23.364;2023-05-13T05:05:18;8.40;;;3.95;;
36475;SDS011;56615;42.682;23.364;2023-05-13T05:07:46;7.45;;;3.20;;
36475;SDS011;56615;42.682;23.364;2023-05-13T05:10:24;8.10;;;3.30;;
36475;SDS011;56615;42.682;23.364;2023-05-13T05:12:53;8.82;;;3.63;;
36475;SDS011;56615;42.682;23.364;2023-05-13T05:15:39;8.23;;;3.20;;
36475;SDS011;56615;42.682;23.364;2023-05-13T05:18:19;5.82;;;3.10;;
36475;SDS011;56615;42.682;23.364;2023-05-13T05:20:54;7.38;;;3.55;;
36475;SDS011;56615;42.682;23.364;2023-05-13T05:23:33;8.00;;;2.83;;
36475;SDS011;56615;42.682;23.364;2023-05-13T05:26:03;5.07;;;2.60;;
36475;SDS011;56615;42.682;23.364;2023-05-13T05:28:36;6.93;;;2.75;;
36475;SDS011;56615;42.682;23.364;2023-05-13T05:34:21;5.57;;;2.33;;
36475;SDS011;56615;42.682;23.364;2023-05-13T05:36:47;5.18;;;2.10;;
36475;SDS011;56615;42.682;23.364;2023-05-13T05:39:14;4.75;;;2.33;;
36475;SDS011;56615;42.682;23.364;2023-05-13T05:41:39;6.10;;;1.98;;
36475;SDS011;56615;42.682;23.364;2023-05-13T05:44:06;4.10;;;2.17;;
36475;SDS011;56615;42.682;23.364;2023-05-13T05:46:31;4.88;;;2.22;;
36475;SDS011;56615;42.682;23.364;2023-05-13T05:48:57;4.28;;;2.30;;
36475;SDS011;56615;42.682;23.364;2023-05-13T05:51:24;5.20;;;2.05;;
36475;SDS011;56615;42.682;23.364;2023-05-13T05:53:50;5.00;;;2.53;;
36475;SDS011;56615;42.682;23.364;2023-05-13T05:56:15;6.20;;;2.25;;
36475;SDS011;56615;42.682;23.364;2023-05-13T05:58:41;4.78;;;2.50;;
36475;SDS011;56615;42.682;23.364;2023-05-13T06:01:07;5.95;;;2.63;;
36475;SDS011;56615;42.682;23.364;2023-05-13T06:03:32;8.95;;;3.05;;
36475;SDS011;56615;42.682;23.364;2023-05-13T06:05:59;7.07;;;3.03;;
36475;SDS011;56615;42.682;23.364;2023-05-13T06:08:29;6.50;;;3.05;;
36475;SDS011;56615;42.682;23.364;2023-05-13T06:10:58;7.20;;;2.80;;
36475;SDS011;56615;42.682;23.364;2023-05-13T06:13:25;5.30;;;2.70;;
36475;SDS011;56615;42.682;23.364;2023-05-13T06:15:50;6.82;;;2.97;;
36475;SDS011;56615;42.682;23.364;2023-05-13T06:18:16;6.20;;;2.72;;
36475;SDS011;56615;42.682;23.364;2023-05-13T06:20:42;5.45;;;2.78;;
36475;SDS011;56615;42.682;23.364;2023-05-13T06:23:08;4.97;;;2.83;;
36475;SDS011;56615;42.682;23.364;2023-05-13T06:25:35;6.95;;;3.22;;
36475;SDS011;56615;42.682;23.364;2023-05-13T06:28:00;6.10;;;2.50;;
36475;SDS011;56615;42.682;23.364;2023-05-13T06:30:26;6.20;;;2.42;;
36475;SDS011;56615;42.682;23.364;2023-05-13T06:32:51;5.43;;;2.40;;
36475;SDS011;56615;42.682;23.364;2023-05-13T06:35:20;6.28;;;2.20;;
36475;SDS011;56615;42.682;23.364;2023-05-13T06:37:45;4.22;;;2.25;;
36475;SDS011;56615;42.682;23.364;2023-05-13T06:40:11;5.50;;;2.60;;
36475;SDS011;56615;42.682;23.364;2023-05-13T06:42:38;6.10;;;2.20;;
36475;SDS011;56615;42.682;23.364;2023-05-13T06:45:08;3.72;;;2.20;;
36475;SDS011;56615;42.682;23.364;2023-05-13T06:47:50;4.82;;;2.47;;
36475;SDS011;56615;42.682;23.364;2023-05-13T06:50:17;3.95;;;2.15;;
36475;SDS011;56615;42.682;23.364;2023-05-13T06:52:42;4.72;;;2.55;;
36475;SDS011;56615;42.682;23.364;2023-05-13T06:55:07;5.10;;;2.38;;
36475;SDS011;56615;42.682;23.364;2023-05-13T06:57:34;5.43;;;2.40;;
36475;SDS011;56615;42.682;23.364;2023-05-13T07:00:45;4.82;;;2.33;;
36475;SDS011;56615;42.682;23.364;2023-05-13T07:03:11;5.75;;;2.50;;
36475;SDS011;56615;42.682;23.364;2023-05-13T07:05:36;5.70;;;2.42;;
36475;SDS011;56615;42.682;23.364;2023-05-13T07:08:03;5.78;;;2.60;;
36475;SDS011;56615;42.682;23.364;2023-05-13T07:10:32;5.78;;;2.60;;
36475;SDS011;56615;42.682;23.364;2023-05-13T07:12:58;5.22;;;2.50;;
36475;SDS011;56615;42.682;23.364;2023-05-13T07:15:41;6.35;;;2.90;;
36475;SDS011;56615;42.682;23.364;2023-05-13T07:18:07;12.65;;;3.05;;
36475;SDS011;56615;42.682;23.364;2023-05-13T07:20:33;6.20;;;2.60;;
36475;SDS011;56615;42.682;23.364;2023-05-13T07:23:00;6.57;;;2.65;;
36475;SDS011;56615;42.682;23.364;2023-05-13T07:25:27;4.65;;;2.25;;
36475;SDS011;56615;42.682;23.364;2023-05-13T07:27:52;5.35;;;2.80;;
36475;SDS011;56615;42.682;23.364;2023-05-13T07:30:17;5.05;;;2.80;;
36475;SDS011;56615;42.682;23.364;2023-05-13T07:32:43;9.90;;;3.03;;
36475;SDS011;56615;42.682;23.364;2023-05-13T07:35:08;5.60;;;2.67;;
36475;SDS011;56615;42.682;23.364;2023-05-13T07:37:35;5.53;;;2.30;;
36475;SDS011;56615;42.682;23.364;2023-05-13T07:40:10;6.18;;;2.60;;
36475;SDS011;56615;42.682;23.364;2023-05-13T07:42:37;6.68;;;3.03;;
36475;SDS011;56615;42.682;23.364;2023-05-13T07:45:04;6.85;;;2.88;;
36475;SDS011;56615;42.682;23.364;2023-05-13T07:47:33;6.10;;;2.80;;
36475;SDS011;56615;42.682;23.364;2023-05-13T07:49:59;6.20;;;3.13;;
36475;SDS011;56615;42.682;23.364;2023-05-13T07:52:27;6.28;;;3.20;;
36475;SDS011;56615;42.682;23.364;2023-05-13T07:54:53;6.50;;;3.10;;
36475;SDS011;56615;42.682;23.364;2023-05-13T07:57:18;8.88;;;3.35;;
36475;SDS011;56615;42.682;23.364;2023-05-13T07:59:44;6.55;;;3.40;;
36475;SDS011;56615;42.682;23.364;2023-05-13T08:02:10;7.50;;;3.20;;
36475;SDS011;56615;42.682;23.364;2023-05-13T08:04:35;10.30;;;4.00;;
36475;SDS011;56615;42.682;23.364;2023-05-13T08:07:01;7.85;;;3.58;;
36475;SDS011;56615;42.682;23.364;2023-05-13T08:09:26;6.57;;;3.50;;
36475;SDS011;56615;42.682;23.364;2023-05-13T08:11:52;7.03;;;3.83;;
36475;SDS011;56615;42.682;23.364;2023-05-13T08:14:18;7.90;;;3.63;;
36475;SDS011;56615;42.682;23.364;2023-05-13T08:20:16;8.43;;;3.80;;
36475;SDS011;56615;42.682;23.364;2023-05-13T08:22:41;8.68;;;4.03;;
36475;SDS011;56615;42.682;23.364;2023-05-13T08:25:07;7.20;;;3.92;;
36475;SDS011;56615;42.682;23.364;2023-05-13T08:27:39;7.43;;;4.00;;
36475;SDS011;56615;42.682;23.364;2023-05-13T08:30:05;7.25;;;4.15;;
36475;SDS011;56615;42.682;23.364;2023-05-13T08:32:33;9.68;;;4.18;;
36475;SDS011;56615;42.682;23.364;2023-05-13T08:34:58;8.82;;;4.28;;
36475;SDS011;56615;42.682;23.364;2023-05-13T08:37:25;10.07;;;4.47;;
36475;SDS011;56615;42.682;23.364;2023-05-13T08:39:53;10.20;;;4.28;;
36475;SDS011;56615;42.682;23.364;2023-05-13T08:42:20;9.18;;;4.80;;
36475;SDS011;56615;42.682;23.364;2023-05-13T08:44:48;11.38;;;4.70;;
36475;SDS011;56615;42.682;23.364;2023-05-13T08:50:00;6.78;;;4.28;;
36475;SDS011;56615;42.682;23.364;2023-05-13T08:52:30;9.10;;;5.00;;
36475;SDS011;56615;42.682;23.364;2023-05-13T08:54:57;8.25;;;4.72;;
36475;SDS011;56615;42.682;23.364;2023-05-13T08:57:23;9.35;;;4.85;;
36475;SDS011;56615;42.682;23.364;2023-05-13T08:59:48;9.35;;;4.40;;
36475;SDS011;56615;42.682;23.364;2023-05-13T09:02:23;11.18;;;5.40;;
36475;SDS011;56615;42.682;23.364;2023-05-13T09:04:51;10.35;;;5.18;;
36475;SDS011;56615;42.682;23.364;2023-05-13T09:07:19;14.32;;;4.68;;
36475;SDS011;56615;42.682;23.364;2023-05-13T09:09:51;9.50;;;4.07;;
36475;SDS011;56615;42.682;23.364;2023-05-13T09:15:31;7.45;;;4.28;;
36475;SDS011;56615;42.682;23.364;2023-05-13T09:18:05;10.00;;;5.05;;
36475;SDS011;56615;42.682;23.364;2023-05-13T09:20:31;9.65;;;4.38;;
36475;SDS011;56615;42.682;23.364;2023-05-13T09:25:29;10.27;;;4.57;;
36475;SDS011;56615;42.682;23.364;2023-05-13T09:27:56;9.00;;;4.47;;
36475;SDS011;56615;42.682;23.364;2023-05-13T09:30:42;10.02;;;4.65;;
36475;SDS011;56615;42.682;23.364;2023-05-13T09:33:20;8.63;;;4.20;;
36475;SDS011;56615;42.682;23.364;2023-05-13T09:35:50;10.60;;;5.20;;
36475;SDS011;56615;42.682;23.364;2023-05-13T09:38:20;10.27;;;5.20;;
36475;SDS011;56615;42.682;23.364;2023-05-13T09:40:53;12.55;;;5.65;;
36475;SDS011;56615;42.682;23.364;2023-05-13T09:43:23;10.98;;;5.93;;
36475;SDS011;56615;42.682;23.364;2023-05-13T09:45:54;8.60;;;4.90;;
36475;SDS011;56615;42.682;23.364;2023-05-13T09:48:24;14.02;;;5.32;;
36475;SDS011;56615;42.682;23.364;2023-05-13T09:50:52;9.30;;;4.93;;
36475;SDS011;56615;42.682;23.364;2023-05-13T09:53:22;8.13;;;5.20;;
36475;SDS011;56615;42.682;23.364;2023-05-13T09:55:56;10.60;;;5.43;;
36475;SDS011;56615;42.682;23.364;2023-05-13T10:00:54;10.18;;;5.40;;
36475;SDS011;56615;42.682;23.364;2023-05-13T10:03:29;9.98;;;5.30;;
36475;SDS011;56615;42.682;23.364;2023-05-13T10:05:57;9.38;;;5.10;;
36475;SDS011;56615;42.682;23.364;2023-05-13T10:08:27;11.50;;;5.68;;
36475;SDS011;56615;42.682;23.364;2023-05-13T10:11:02;13.90;;;5.75;;
36475;SDS011;56615;42.682;23.364;2023-05-13T10:13:42;9.30;;;5.50;;
36475;SDS011;56615;42.682;23.364;2023-05-13T10:16:35;9.52;;;4.90;;
36475;SDS011;56615;42.682;23.364;2023-05-13T10:19:17;10.95;;;5.78;;
36475;SDS011;56615;42.682;23.364;2023-05-13T10:21:50;11.55;;;5.50;;
36475;SDS011;56615;42.682;23.364;2023-05-13T10:24:18;7.85;;;4.78;;
36475;SDS011;56615;42.682;23.364;2023-05-13T10:26:46;10.13;;;4.97;;
36475;SDS011;56615;42.682;23.364;2023-05-13T10:29:53;12.82;;;5.00;;
36475;SDS011;56615;42.682;23.364;2023-05-13T10:32:24;10.18;;;5.10;;
36475;SDS011;56615;42.682;23.364;2023-05-13T10:34:53;8.90;;;4.80;;
36475;SDS011;56615;42.682;23.364;2023-05-13T10:43:33;9.10;;;4.90;;
36475;SDS011;56615;42.682;23.364;2023-05-13T10:45:59;9.48;;;5.10;;
36475;SDS011;56615;42.682;23.364;2023-05-13T10:51:24;9.68;;;5.45;;
36475;SDS011;56615;42.682;23.364;2023-05-13T10:53:53;9.32;;;5.53;;
36475;SDS011;56615;42.682;23.364;2023-05-13T10:56:21;11.48;;;5.68;;
36475;SDS011;56615;42.682;23.364;2023-05-13T11:03:57;11.13;;;5.90;;
36475;SDS011;56615;42.682;23.364;2023-05-13T11:06:32;10.13;;;5.45;;
36475;SDS011;56615;42.682;23.364;2023-05-13T11:09:06;10.20;;;5.47;;
36475;SDS011;56615;42.682;23.364;2023-05-13T11:11:37;10.90;;;6.80;;
36475;SDS011;56615;42.682;23.364;2023-05-13T11:19:43;8.10;;;5.05;;
36475;SDS011;56615;42.682;23.364;2023-05-13T11:22:19;9.50;;;5.28;;
36475;SDS011;56615;42.682;23.364;2023-05-13T11:27:51;7.72;;;4.97;;
36475;SDS011;56615;42.682;23.364;2023-05-13T11:30:21;8.23;;;4.60;;
36475;SDS011;56615;42.682;23.364;2023-05-13T11:32:58;9.95;;;4.78;;
36475;SDS011;56615;42.682;23.364;2023-05-13T11:35:30;9.10;;;4.72;;
36475;SDS011;56615;42.682;23.364;2023-05-13T11:37:58;9.15;;;5.70;;
36475;SDS011;56615;42.682;23.364;2023-05-13T11:40:33;9.82;;;5.18;;
36475;SDS011;56615;42.682;23.364;2023-05-13T11:43:03;9.15;;;4.82;;
36475;SDS011;56615;42.682;23.364;2023-05-13T11:45:36;10.85;;;5.45;;
36475;SDS011;56615;42.682;23.364;2023-05-13T11:48:19;9.75;;;5.22;;
36475;SDS011;56615;42.682;23.364;2023-05-13T11:50:46;6.70;;;4.40;;
36475;SDS011;56615;42.682;23.364;2023-05-13T11:56:09;8.55;;;4.78;;
36475;SDS011;56615;42.682;23.364;2023-05-13T11:58:35;7.75;;;4.65;;
36475;SDS011;56615;42.682;23.364;2023-05-13T12:01:05;7.72;;;4.72;;
36475;SDS011;56615;42.682;23.364;2023-05-13T12:03:31;7.95;;;4.47;;
36475;SDS011;56615;42.682;23.364;2023-05-13T12:06:01;9.63;;;5.82;;
36475;SDS011;56615;42.682;23.364;2023-05-13T12:08:29;9.73;;;4.47;;
36475;SDS011;56615;42.682;23.364;2023-05-13T12:10:54;10.57;;;4.68;;
36475;SDS011;56615;42.682;23.364;2023-05-13T12:13:20;8.55;;;4.15;;
36475;SDS011;56615;42.682;23.364;2023-05-13T12:15:47;5.72;;;4.28;;
36475;SDS011;56615;42.682;23.364;2023-05-13T12:18:14;7.32;;;4.35;;
36475;SDS011;56615;42.682;23.364;2023-05-13T12:20:49;7.78;;;4.30;;
36475;SDS011;56615;42.682;23.364;2023-05-13T12:23:15;7.95;;;4.30;;
36475;SDS011;56615;42.682;23.364;2023-05-13T12:25:42;7.22;;;4.13;;
36475;SDS011;56615;42.682;23.364;2023-05-13T12:28:25;7.65;;;4.13;;
36475;SDS011;56615;42.682;23.364;2023-05-13T12:30:58;8.90;;;4.32;;
36475;SDS011;56615;42.682;23.364;2023-05-13T12:35:54;12.25;;;4.70;;
36475;SDS011;56615;42.682;23.364;2023-05-13T12:38:38;8.35;;;4.75;;
36475;SDS011;56615;42.682;23.364;2023-05-13T12:41:09;7.63;;;4.25;;
36475;SDS011;56615;42.682;23.364;2023-05-13T12:43:36;7.22;;;4.05;;
36475;SDS011;56615;42.682;23.364;2023-05-13T12:46:02;5.97;;;3.95;;
36475;SDS011;56615;42.682;23.364;2023-05-13T12:48:34;7.15;;;4.22;;
36475;SDS011;56615;42.682;23.364;2023-05-13T12:50:59;7.65;;;4.07;;
36475;SDS011;56615;42.682;23.364;2023-05-13T12:53:25;6.57;;;3.78;;
36475;SDS011;56615;42.682;23.364;2023-05-13T12:55:50;7.72;;;4.30;;
36475;SDS011;56615;42.682;23.364;2023-05-13T12:58:16;7.97;;;4.40;;
36475;SDS011;56615;42.682;23.364;2023-05-13T13:00:41;8.15;;;4.00;;
36475;SDS011;56615;42.682;23.364;2023-05-13T13:03:07;6.15;;;4.20;;
36475;SDS011;56615;42.682;23.364;2023-05-13T13:05:32;11.70;;;6.90;;
36475;SDS011;56615;42.682;23.364;2023-05-13T13:07:57;8.70;;;4.00;;
36475;SDS011;56615;42.682;23.364;2023-05-13T13:10:25;5.80;;;3.53;;
36475;SDS011;56615;42.682;23.364;2023-05-13T13:12:50;9.55;;;4.18;;
36475;SDS011;56615;42.682;23.364;2023-05-13T13:15:16;6.13;;;3.53;;
36475;SDS011;56615;42.682;23.364;2023-05-13T13:17:42;9.52;;;4.00;;
36475;SDS011;56615;42.682;23.364;2023-05-13T13:20:09;7.85;;;4.18;;
36475;SDS011;56615;42.682;23.364;2023-05-13T13:22:35;6.28;;;3.72;;
36475;SDS011;56615;42.682;23.364;2023-05-13T13:25:06;7.07;;;3.97;;
36475;SDS011;56615;42.682;23.364;2023-05-13T13:27:36;9.90;;;3.90;;
36475;SDS011;56615;42.682;23.364;2023-05-13T13:30:01;6.32;;;3.90;;
36475;SDS011;56615;42.682;23.364;2023-05-13T13:32:27;7.68;;;3.90;;
36475;SDS011;56615;42.682;23.364;2023-05-13T13:34:53;6.60;;;3.92;;
36475;SDS011;56615;42.682;23.364;2023-05-13T13:37:18;6.90;;;3.90;;
36475;SDS011;56615;42.682;23.364;2023-05-13T13:39:44;9.15;;;4.15;;
36475;SDS011;56615;42.682;23.364;2023-05-13T13:42:09;8.48;;;3.85;;
36475;SDS011;56615;42.682;23.364;2023-05-13T13:44:34;8.52;;;3.97;;
36475;SDS011;56615;42.682;23.364;2023-05-13T13:47:01;7.10;;;3.97;;
36475;SDS011;56615;42.682;23.364;2023-05-13T13:49:28;7.45;;;4.28;;
36475;SDS011;56615;42.682;23.364;2023-05-13T13:51:55;6.55;;;3.78;;
36475;SDS011;56615;42.682;23.364;2023-05-13T13:54:22;8.65;;;3.83;;
36475;SDS011;56615;42.682;23.364;2023-05-13T13:56:47;9.88;;;3.90;;
36475;SDS011;56615;42.682;23.364;2023-05-13T13:59:15;8.75;;;3.70;;
36475;SDS011;56615;42.682;23.364;2023-05-13T14:01:44;6.85;;;3.65;;
36475;SDS011;56615;42.682;23.364;2023-05-13T14:04:17;6.95;;;3.33;;
36475;SDS011;56615;42.682;23.364;2023-05-13T14:06:45;8.00;;;3.42;;
36475;SDS011;56615;42.682;23.364;2023-05-13T14:09:12;7.95;;;4.65;;
36475;SDS011;56615;42.682;23.364;2023-05-13T14:11:37;9.38;;;4.25;;
36475;SDS011;56615;42.682;23.364;2023-05-13T14:14:03;8.07;;;4.10;;
36475;SDS011;56615;42.682;23.364;2023-05-13T14:16:28;6.70;;;3.47;;
36475;SDS011;56615;42.682;23.364;2023-05-13T14:18:55;6.80;;;4.00;;
36475;SDS011;56615;42.682;23.364;2023-05-13T14:21:22;7.28;;;3.95;;
36475;SDS011;56615;42.682;23.364;2023-05-13T14:23:47;7.90;;;3.80;;
36475;SDS011;56615;42.682;23.364;2023-05-13T14:26:13;7.25;;;3.65;;
36475;SDS011;56615;42.682;23.364;2023-05-13T14:28:40;6.10;;;3.40;;
36475;SDS011;56615;42.682;23.364;2023-05-13T14:31:07;10.63;;;5.50;;
36475;SDS011;56615;42.682;23.364;2023-05-13T14:33:32;7.40;;;3.55;;
36475;SDS011;56615;42.682;23.364;2023-05-13T14:35:59;6.90;;;3.35;;
36475;SDS011;56615;42.682;23.364;2023-05-13T14:38:26;6.80;;;3.30;;
36475;SDS011;56615;42.682;23.364;2023-05-13T14:40:57;8.32;;;3.30;;
36475;SDS011;56615;42.682;23.364;2023-05-13T14:43:25;6.88;;;3.60;;
36475;SDS011;56615;42.682;23.364;2023-05-13T14:45:51;5.57;;;3.20;;
36475;SDS011;56615;42.682;23.364;2023-05-13T14:48:19;10.48;;;3.90;;
36475;SDS011;56615;42.682;23.364;2023-05-13T14:50:45;6.95;;;3.40;;
36475;SDS011;56615;42.682;23.364;2023-05-13T14:53:11;6.75;;;3.30;;
36475;SDS011;56615;42.682;23.364;2023-05-13T14:55:37;7.82;;;3.55;;
36475;SDS011;56615;42.682;23.364;2023-05-13T14:58:03;9.23;;;4.18;;
36475;SDS011;56615;42.682;23.364;2023-05-13T15:00:28;7.20;;;3.30;;
36475;SDS011;56615;42.682;23.364;2023-05-13T15:02:59;8.35;;;4.10;;
36475;SDS011;56615;42.682;23.364;2023-05-13T15:05:24;4.72;;;3.03;;
36475;SDS011;56615;42.682;23.364;2023-05-13T15:07:51;6.30;;;3.00;;
36475;SDS011;56615;42.682;23.364;2023-05-13T15:10:16;6.80;;;3.10;;
36475;SDS011;56615;42.682;23.364;2023-05-13T15:12:42;4.93;;;2.80;;
36475;SDS011;56615;42.682;23.364;2023-05-13T15:15:10;6.07;;;2.80;;
36475;SDS011;56615;42.682;23.364;2023-05-13T15:17:35;7.05;;;3.10;;
36475;SDS011;56615;42.682;23.364;2023-05-13T15:20:01;6.53;;;2.90;;
36475;SDS011;56615;42.682;23.364;2023-05-13T15:22:28;6.80;;;3.22;;
36475;SDS011;56615;42.682;23.364;2023-05-13T15:24:53;7.53;;;3.00;;
36475;SDS011;56615;42.682;23.364;2023-05-13T15:27:21;7.43;;;3.13;;
36475;SDS011;56615;42.682;23.364;2023-05-13T15:30:10;9.05;;;3.05;;
36475;SDS011;56615;42.682;23.364;2023-05-13T15:32:35;4.78;;;2.80;;